createdAt,value
2019-05-29T00:08:08.269Z,100.00
2019-05-29T00:18:41.481Z,100.00
2019-05-29T00:29:14.757Z,100.00
2019-05-29T00:39:47.497Z,100.00
2019-05-29T00:50:21.078Z,100.00
2019-05-29T01:00:54.772Z,100.00
2019-05-29T01:11:28.239Z,100.00
2019-05-29T01:22:03.997Z,100.00
2019-05-29T01:32:37.647Z,100.00
2019-05-29T01:43:11.385Z,100.00
2019-05-29T01:53:45.051Z,100.00
2019-05-29T02:04:19.770Z,100.00
2019-05-29T02:14:53.249Z,100.00
2019-05-29T02:25:26.341Z,100.00
2019-05-29T02:35:59.861Z,100.00
2019-05-29T02:46:33.415Z,100.00
2019-05-29T02:57:07.002Z,100.00
2019-05-29T03:07:40.337Z,100.00
2019-05-29T03:18:13.769Z,100.00
2019-05-29T03:28:47.511Z,100.00
2019-05-29T03:39:20.861Z,100.00
2019-05-29T03:49:53.513Z,100.00
2019-05-29T04:00:32.010Z,100.00
2019-05-29T04:11:02.451Z,100.00
2019-05-29T04:21:38.635Z,91.32
2019-05-29T04:32:11.545Z,87.43
2019-05-29T04:42:45.153Z,92.31
2019-05-29T04:53:18.523Z,85.78
2019-05-29T05:03:52.282Z,70.21
2019-05-29T05:14:25.685Z,59.39
2019-05-29T05:24:59.156Z,53.97
2019-05-29T05:35:32.737Z,51.20
2019-05-29T05:46:06.277Z,49.82
2019-05-29T05:56:39.778Z,42.28
2019-05-29T06:07:13.351Z,41.62
2019-05-29T06:18:04.659Z,39.97
2019-05-29T06:28:21.610Z,46.04
2019-05-29T06:38:55.265Z,47.37
2019-05-29T06:49:28.722Z,48.48
2019-05-29T07:00:01.479Z,44.84
2019-05-29T07:10:36.355Z,47.14
2019-05-29T07:21:09.498Z,46.90
2019-05-29T07:31:43.175Z,45.61
2019-05-29T07:42:16.922Z,47.10
2019-05-29T07:52:50.719Z,46.37
2019-05-29T08:03:23.632Z,44.91
2019-05-29T08:13:56.370Z,45.59
2019-05-29T08:24:30.129Z,39.96
2019-05-29T08:35:03.735Z,37.33
2019-05-29T08:45:36.688Z,39.53
2019-05-29T08:56:10.298Z,40.59
2019-05-29T09:06:44.722Z,45.76
2019-05-29T09:17:18.513Z,42.72
2019-05-29T09:27:52.034Z,40.42
2019-05-29T09:38:25.099Z,41.67
2019-05-29T09:49:01.484Z,43.59
2019-05-29T09:59:34.044Z,45.01
2019-05-29T10:10:06.855Z,42.94
2019-05-29T10:20:40.345Z,41.62
2019-05-29T10:31:14.005Z,45.15
2019-05-29T10:41:48.641Z,47.29
2019-05-29T10:52:22.396Z,46.03
2019-05-29T11:02:57.724Z,43.19
2019-05-29T11:13:31.663Z,44.63
2019-05-29T11:24:04.335Z,46.74
2019-05-29T11:34:37.288Z,49.75
2019-05-29T11:45:10.948Z,46.58
2019-05-29T11:55:44.433Z,42.82
2019-05-29T12:06:17.891Z,41.46
2019-05-29T12:16:51.772Z,41.02
2019-05-29T12:27:25.209Z,44.95
2019-05-29T12:37:59.422Z,42.42
2019-05-29T12:48:32.448Z,41.37
2019-05-29T12:59:05.110Z,43.15
2019-05-29T13:09:38.761Z,42.95
2019-05-29T13:20:20.958Z,44.22
2019-05-29T13:30:47.349Z,45.02
2019-05-29T13:41:20.730Z,44.98
2019-05-29T13:51:54.246Z,48.92
2019-05-29T14:02:27.770Z,51.51
2019-05-29T14:13:01.356Z,48.86
2019-05-29T14:23:35.019Z,49.01
2019-05-29T14:34:09.488Z,50.60
2019-05-29T14:44:43.142Z,39.61
2019-05-29T14:55:18.215Z,37.27
2019-05-29T15:05:50.775Z,32.51
2019-05-29T15:16:24.317Z,34.80
2019-05-29T15:26:57.969Z,36.00
2019-05-29T15:37:31.469Z,36.73
2019-05-29T15:48:05.118Z,52.38
2019-05-29T15:58:38.737Z,55.55
2019-05-29T16:09:12.160Z,58.13
2019-05-29T16:19:45.735Z,60.58
2019-05-29T16:30:20.027Z,61.24
2019-05-29T16:40:53.350Z,61.83
2019-05-29T16:51:26.083Z,61.94
2019-05-29T17:01:59.643Z,64.36
2019-05-29T17:12:33.297Z,69.21
2019-05-29T17:23:06.861Z,70.70
2019-05-29T17:33:39.613Z,69.62
2019-05-29T17:44:13.272Z,70.46
2019-05-29T17:54:46.812Z,71.21
2019-05-29T18:05:20.698Z,83.99
2019-05-29T18:15:54.306Z,91.67
2019-05-29T18:26:45.947Z,93.92
2019-05-29T18:37:02.694Z,95.04
2019-05-29T18:47:36.329Z,94.80
2019-05-29T18:58:09.153Z,93.61
2019-05-29T19:08:42.622Z,90.59
2019-05-29T19:19:16.212Z,89.48
2019-05-29T19:29:49.040Z,89.24
2019-05-29T19:40:22.441Z,90.53
2019-05-29T19:50:56.073Z,87.92
2019-05-29T20:01:34.171Z,88.07
2019-05-29T20:12:05.207Z,87.70
2019-05-29T20:22:39.088Z,88.06
2019-05-29T20:33:12.894Z,89.73
2019-05-29T20:43:46.673Z,88.18
2019-05-29T20:54:20.332Z,86.67
2019-05-29T21:04:53.161Z,89.13
2019-05-29T21:15:27.543Z,90.86
2019-05-29T21:26:00.918Z,90.75
2019-05-29T21:36:34.297Z,92.24
2019-05-29T21:47:07.920Z,94.44
2019-05-29T21:57:43.929Z,93.06
2019-05-29T22:08:16.236Z,87.91
2019-05-29T22:18:48.978Z,85.70
2019-05-29T22:29:22.710Z,80.42
2019-05-29T22:39:57.336Z,77.15
2019-05-29T22:50:30.966Z,75.53
2019-05-29T23:01:04.431Z,75.31
2019-05-29T23:11:37.907Z,74.78
2019-05-29T23:22:12.584Z,74.43
2019-05-29T23:32:45.480Z,74.15
2019-05-29T23:43:18.761Z,74.09
2019-05-29T23:53:51.552Z,74.39
